Main page
METAR-TAF:

METAR-TAF

Airports :

Base Aérea de Anápolis

Anápolis, Goiás, Brazil

latitude: 16-14S, longitude: 048-58W, elevation: 1137 m

Current weather observation

The report was made 1 hour and 17 minutes ago, at 09:00 UTC
Wind 4 kt from the South/Southwest
Temperature 20°C
Humidity 83%
Pressure 1017 hPa
Visibility 10 km or more
Scattered clouds at a height of 3000 ft

METAR: SBAN 140900Z 20004KT 9999 SCT030 20/17 Q1017

Time: 08:17 (10:17 UTC)

Forecast

The report was made 6 hours and 17 minutes ago, at 04:00 UTC
Forecast valid from 14 at 06 UTC to 14 at 18 UTC
Wind 10 kt from the North/Northeast
Visibility 10 km or more
Few clouds at a height of 3000 ft
Becoming
from 14 at 16 UTC to 14 at 18 UTC
Few clouds at a height of 4000 ft, Towering cumulus.

TAF: SBAN 140400Z 1406/1418 03010KT 9999 FEW030 TN20/1407Z TX31/1417Z BECMG 1416/1418 FEW0035 FEW040TCU RMK PED

Weather observations and forecasts of more than 4000 airports (METAR and TAF reports).

The available stations are represented by yellow and red dots on the map.

Hover mouse over dot to see the name of the station.

Then click to see weather observations and forecasts.

To change the map : click on the green buttons with a black cross to zoom in, on the green button with a dash to zoom out, or on the green arrows for adjacent maps.


METAR-TAF: